Grandview, Arkansas
Current Conditions -  °F | °C
As of 10:53 AM on Friday 24 Oct 2014 (Local Time) from KHRO Reporting Station
Broken Clouds Broken Clouds  
Wind Chill: 69°   Ceiling: 3500
Heat Index: 69°   Visibility: 10mi
Dew Point: 57°   Wind: 7mph
Humidity: 65%   Direction: 270°W
Pressure: 30.16"   Gusts: NA
Location:  36.3056°N, 93.5491°W
Report Text: KHRO 241553Z AUTO 27006KT 10SM BKN035 21/14 A3016 RMK AO2 SLP207 T02060139
Loading
Personal Weather Stations






























Interactive Weather Map
Tropical Storm Tracking
New forecast layout! Learn more

10-Day Weather Forecast

Advertisements
Track Severe Weather on mobile